Craigmont, Idaho
Current Conditions -  °F | °C
As of 7:35 AM on Friday 24 Oct 2014 (Local Time) from KGIC Reporting Station
Overcast Overcast  
Wind Chill: 42°   Ceiling: 200
Heat Index: 46°   Visibility: 0mi
Dew Point: 44°   Wind: 6mph
Humidity: 95%   Direction: 70°ENE
Pressure: 30.13"   Gusts: NA
Location:  46.24°N, 116.47°W
Report Text: KGIC 241435Z AUTO 07005KT M1/4SM OVC002 08/07 A3013 RMK AO1 T00750067
Loading
Personal Weather Stations






























Interactive Weather Map
Tropical Storm Tracking
New forecast layout! Learn more

10-Day Weather Forecast

Advertisements
Track Severe Weather on mobile